Het weer levert geen direct gevaar op.    Er zijn geen waarschuwingen afgegeven.


Onweer radar Meer informatie blitzortung!


Regen radar Meer informatie rain snow radar


Bezoek onze andere website:

Template documentation
and downloads

And another site

Forum Leuven-template

EUWEATHER.EU

Verwachtingen Meteociel


U vindt ons ook hier:

Het Weer Aktueel

UK Metoffice

European Weather Network

WeatherCloud

Weather Underground

Benelux Weer Netwerk

AWEKAS

WeatherlinkIP

HAMweather, WeatherForYou, PWS Weather

Wetterpage 24

Wetter.com



METAR rapporten vliegvelden

   
EBAW - Antwerp
Gewijzigd: 21-01-2020 14:20
Nevel, Grotendeels bewolkt  
Nevel, Grotendeels bewolkt  
   Wind: varieert 3.7 km/h
Wind: varieert 3.7 km/h
Temperatuur: 2°C
Dauwpunt: 0°C
Vochtigheid: 87%
Barometer: 1041 hPa
Bewolking: Grotendeels bewolkt
Zicht: 3 km
Bewolking: Grotendeels bewolkt 600 ft
EBAW 211320Z VRB02KT 3000 BR BKN006 02/00 Q1041 NOSIG
EBLG - Li├Ęge
Gewijzigd: 21-01-2020 14:20
Helder  
Helder  
   Wind: varieert 3.7 km/h
Wind: varieert 3.7 km/h
Temperatuur: 4°C
Dauwpunt: -1°C
Vochtigheid: 70%
Barometer: 1040 hPa
Zicht: meer dan 10 km
Bewolking: Helder
EBLG 211320Z VRB02KT CAVOK 04/M01 Q1040 NOSIG
EBCV - Mons/Bergen
Gewijzigd: 21-01-2020 14:25
Wat regen mogelijk  
Wat regen mogelijk  
   Wind: varieert 1.9 km/h
Wind: varieert 1.9 km/h
Temperatuur: 0°C
Dauwpunt: 0°C
Vochtigheid: 100%
Barometer: 1042 hPa
Zicht: 0 km
EBCV 211325Z AUTO VRB01KT 0150 -RA /// M00/M00 Q1042 RED
EHBK - Maastricht
Gewijzigd: 21-01-2020 14:25
Helder  
Helder  
   Wind: varieert 3.7 km/h
Wind: varieert 3.7 km/h
Temperatuur: 4°C
Dauwpunt: 1°C
Vochtigheid: 81%
Barometer: 1040 hPa
Bewolking: Helder
Zicht: meer dan 10 km
Bewolking: Helder
EHBK 211325Z AUTO VRB02KT 9999 NCD 04/01 Q1040 NOSIG
ELLX - Luxemburg
Gewijzigd: 21-01-2020 14:20
Helder  
Helder  
   Wind: NO 7.4 km/h
Wind: NO 7.4 km/h
Temperatuur: 4°C
Voelt als: 2°C
Dauwpunt: -2°C
Vochtigheid: 65%
Barometer: 1039 hPa
Zicht: meer dan 10 km
Bewolking: Helder
ELLX 211320Z 05004KT 010V090 CAVOK 04/M02 Q1039 NOSIG
EBOS - Oostende
Gewijzigd: 21-01-2020 14:20
Mist, Grotendeels bewolkt  
Mist, Grotendeels bewolkt  
   Wind: ZZW 7.4 km/h
Wind: ZZW 7.4 km/h
Temperatuur: 2°C
Voelt als: 0°C
Dauwpunt: 1°C
Vochtigheid: 93%
Barometer: 1041 hPa
Bewolking: Grotendeels bewolkt
Zicht: 0 km
Bewolking: Grotendeels bewolkt 100 ft
EBOS 211320Z 21004KT 160V250 0350 R08/0550U R26/0700N FG BKN001 02/01 Q1041 TEMPO 1500 BR BKN003

Script ontwikkeld door  Saratoga-weather.org Aangepast voor de template door  Weerstation Leuven

Apparatuur in gebruik:

Weerstation
Davis VP2

Weerprogramma
Meteobridge

Weercomputer
Asus WL -330N3G

Webleverancier
Onecom

Davis VP2

Meteobridge

Asus WL -330N3G

Onecom